Time;durP1;ratioP1;P1;durP2;ratioP2;P2;SDS_P1;SDS_P2;PMS_P1;PMS_P2;Temp;Humidity;BMP_temperature;BMP_pressure;BME280_temperature;BME280_humidity;BME280_pressure;Samples;Min_cycle;Max_cycle;Signal;HPM_P1;HPM_P2
2023/02/02 00:01:31;;;;;;;;;;;25.30;99.90;;;;;;5013649;28;19921;-64
2023/02/02 00:03:58;;;;;;;;;;;25.40;99.90;;;;;;5014034;28;19920;-61
2023/02/02 00:06:26;;;;;;;;;;;25.40;99.90;;;;;;5014043;28;19909;-60
2023/02/02 00:08:53;;;;;;;;;;;25.50;99.90;;;;;;5013979;28;20009;-59
2023/02/02 00:11:19;;;;;;;;;;;25.60;99.90;;;;;;5013800;28;19913;-61
2023/02/02 00:13:46;;;;;;;;;;;25.70;99.90;;;;;;5014033;28;19917;-65
2023/02/02 00:16:28;;;;;;;;;;;25.80;99.90;;;;;;5014023;28;19913;-60
2023/02/02 00:18:59;;;;;;;;;;;25.70;99.90;;;;;;5013571;28;19956;-60
2023/02/02 00:21:25;;;;;;;;;;;25.70;99.90;;;;;;5013741;28;19909;-60
2023/02/02 00:23:52;;;;;;;;;;;25.70;99.90;;;;;;5013269;28;19944;-62
2023/02/02 00:26:19;;;;;;;;;;;25.80;99.90;;;;;;5013803;28;19936;-61
2023/02/02 00:28:46;;;;;;;;;;;25.70;99.90;;;;;;5013437;28;19996;-60
2023/02/02 00:31:13;;;;;;;;;;;25.70;99.90;;;;;;5013451;28;19913;-60
2023/02/02 00:33:43;;;;;;;;;;;25.70;99.90;;;;;;5013553;28;19914;-59
2023/02/02 00:36:10;;;;;;;;;;;25.90;99.90;;;;;;5013392;28;19940;-61
2023/02/02 00:38:37;;;;;;;;;;;25.90;99.90;;;;;;5013284;28;19914;-60
2023/02/02 00:41:04;;;;;;;;;;;26.00;99.90;;;;;;5013428;28;19913;-61
2023/02/02 00:43:30;;;;;;;;;;;26.00;99.90;;;;;;5012856;28;19910;-60
2023/02/02 00:45:57;;;;;;;;;;;26.10;99.90;;;;;;5013486;28;20292;-60
2023/02/02 00:48:24;;;;;;;;;;;26.30;99.90;;;;;;5013108;28;19910;-59
2023/02/02 00:50:51;;;;;;;;;;;26.40;99.90;;;;;;5012788;28;19918;-60
2023/02/02 00:53:18;;;;;;;;;;;26.40;99.90;;;;;;5012623;28;20008;-60
2023/02/02 00:55:45;;;;;;;;;;;26.50;99.90;;;;;;5013120;28;19917;-59
2023/02/02 00:58:11;;;;;;;;;;;26.40;99.90;;;;;;5012955;28;20379;-62
2023/02/02 01:00:38;;;;;;;;;;;26.40;99.90;;;;;;5012470;28;19949;-60
2023/02/02 01:03:05;;;;;;;;;;;26.50;99.90;;;;;;5012728;28;20008;-62
2023/02/02 01:05:33;;;;;;;;;;;26.50;99.90;;;;;;5012523;28;19913;-62
2023/02/02 01:08:00;;;;;;;;;;;26.60;99.90;;;;;;4995137;28;20365;-60
2023/02/02 01:10:26;;;;;;;;;;;26.80;99.90;;;;;;5012679;28;19910;-61
2023/02/02 01:12:53;;;;;;;;;;;27.10;99.90;;;;;;5012906;28;20343;-60
2023/02/02 01:15:20;;;;;;;;;;;27.40;99.90;;;;;;5012620;28;20383;-61
2023/02/02 01:17:47;;;;;;;;;;;27.80;99.90;;;;;;5012921;28;19945;-61
2023/02/02 01:20:18;;;;;;;;;;;28.30;99.90;;;;;;5012549;28;20300;-61
2023/02/02 01:22:45;;;;;;;;;;;28.90;99.90;;;;;;5012708;28;19910;-61
2023/02/02 01:25:12;;;;;;;;;;;29.20;99.90;;;;;;5012652;28;19909;-61
2023/02/02 01:27:39;;;;;;;;;;;29.50;99.90;;;;;;5012791;28;20024;-64
2023/02/02 01:30:06;;;;;;;;;;;29.30;99.90;;;;;;5012107;28;19916;-62
2023/02/02 01:32:32;;;;;;;;;;;29.60;99.90;;;;;;5012614;28;19920;-60
2023/02/02 01:34:59;;;;;;;;;;;29.80;99.90;;;;;;5012158;28;19909;-63
2023/02/02 01:37:25;;;;;;;;;;;30.10;99.90;;;;;;5011923;28;20361;-64
2023/02/02 01:39:52;;;;;;;;;;;30.30;99.90;;;;;;5012190;28;19913;-62
2023/02/02 01:42:20;;;;;;;;;;;30.40;99.90;;;;;;5012354;28;19913;-60
2023/02/02 01:44:56;;;;;;;;;;;30.50;99.90;;;;;;4994626;28;19992;-63
2023/02/02 01:47:25;;;;;;;;;;;30.70;99.90;;;;;;5012079;28;20388;-61
2023/02/02 01:49:52;;;;;;;;;;;29.90;99.90;;;;;;5011922;28;20292;-60
2023/02/02 01:52:20;;;;;;;;;;;29.90;99.90;;;;;;5012019;28;19992;-60
2023/02/02 01:54:49;;;;;;;;;;;30.10;99.90;;;;;;5012377;28;20263;-60
2023/02/02 01:57:20;;;;;;;;;;;30.30;99.90;;;;;;4994046;28;20280;-60
2023/02/02 01:59:47;;;;;;;;;;;30.10;99.90;;;;;;5012142;28;19918;-60
2023/02/02 02:02:14;;;;;;;;;;;29.90;99.90;;;;;;5012013;28;19921;-61
2023/02/02 02:04:41;;;;;;;;;;;29.60;99.90;;;;;;5012129;28;19957;-64
2023/02/02 02:07:08;;;;;;;;;;;29.00;99.90;;;;;;5012062;28;20276;-66
2023/02/02 02:09:34;;;;;;;;;;;28.60;99.90;;;;;;5011359;28;19921;-68
2023/02/02 02:12:01;;;;;;;;;;;28.40;99.90;;;;;;5011909;28;19917;-60
2023/02/02 02:17:36;;;;;;;;;;;28.10;99.90;;;;;;5011838;28;19948;-61
2023/02/02 02:26:35;;;;;;;;;;;27.80;99.90;;;;;;5011968;28;19963;-60
2023/02/02 02:29:20;;;;;;;;;;;27.80;99.90;;;;;;5011489;28;19909;-60
2023/02/02 02:31:50;;;;;;;;;;;27.90;99.90;;;;;;5012112;28;19918;-60
2023/02/02 02:34:36;;;;;;;;;;;27.80;99.90;;;;;;5011943;28;19910;-60
2023/02/02 02:37:03;;;;;;;;;;;27.80;99.90;;;;;;5011718;28;19918;-62
2023/02/02 02:39:39;;;;;;;;;;;27.80;99.90;;;;;;5011604;28;19991;-61
2023/02/02 02:42:14;;;;;;;;;;;27.70;99.90;;;;;;5012094;28;19920;-61
2023/02/02 02:44:41;;;;;;;;;;;27.70;99.90;;;;;;5012041;28;19932;-61
2023/02/02 02:47:08;;;;;;;;;;;27.70;99.90;;;;;;5013175;28;19909;-61
2023/02/02 02:49:41;;;;;;;;;;;27.70;99.90;;;;;;5015324;28;20008;-61
2023/02/02 02:52:08;;;;;;;;;;;27.70;99.90;;;;;;5015910;28;20044;-61
2023/02/02 02:54:37;;;;;;;;;;;27.60;99.90;;;;;;5015820;28;20379;-65
2023/02/02 02:57:22;;;;;;;;;;;27.60;99.90;;;;;;5015591;28;19968;-64
2023/02/02 02:59:58;;;;;;;;;;;27.60;99.90;;;;;;5015207;28;19939;-61
2023/02/02 03:02:37;;;;;;;;;;;27.70;99.90;;;;;;5015357;28;20384;-63
2023/02/02 03:05:03;;;;;;;;;;;27.70;99.90;;;;;;5015416;28;19914;-60
2023/02/02 03:07:41;;;;;;;;;;;27.70;99.90;;;;;;5015397;28;20357;-60
2023/02/02 03:10:09;;;;;;;;;;;27.60;99.90;;;;;;5014793;28;19923;-60
2023/02/02 03:12:46;;;;;;;;;;;27.60;99.90;;;;;;5015302;28;19920;-60
2023/02/02 03:15:13;;;;;;;;;;;27.70;99.90;;;;;;5015173;28;19909;-60
2023/02/02 03:17:41;;;;;;;;;;;27.60;99.90;;;;;;5015117;28;19925;-62
2023/02/02 03:20:08;;;;;;;;;;;27.50;99.90;;;;;;5014638;28;19948;-61
2023/02/02 03:22:35;;;;;;;;;;;27.50;99.90;;;;;;5014869;28;19909;-60
2023/02/02 03:25:02;;;;;;;;;;;27.50;99.90;;;;;;5014741;28;20257;-60
2023/02/02 03:27:28;;;;;;;;;;;27.50;99.90;;;;;;5014881;28;20391;-60
2023/02/02 03:29:55;;;;;;;;;;;27.60;99.90;;;;;;5014529;28;20060;-60
2023/02/02 03:32:22;;;;;;;;;;;27.80;99.90;;;;;;5014841;28;19920;-61
2023/02/02 03:34:48;;;;;;;;;;;27.90;99.90;;;;;;5014853;28;19913;-60
2023/02/02 03:37:15;;;;;;;;;;;27.80;99.90;;;;;;5014471;28;19917;-61
2023/02/02 03:39:42;;;;;;;;;;;27.70;99.90;;;;;;5014374;28;19913;-61
2023/02/02 03:42:08;;;;;;;;;;;27.90;99.90;;;;;;5014641;28;20357;-61
2023/02/02 03:44:35;;;;;;;;;;;27.90;99.90;;;;;;5014594;28;19917;-61
2023/02/02 03:47:02;;;;;;;;;;;27.90;99.90;;;;;;5014687;28;19968;-60
2023/02/02 03:49:28;;;;;;;;;;;27.90;99.90;;;;;;5013903;28;20003;-61
2023/02/02 03:51:55;;;;;;;;;;;28.00;99.90;;;;;;5014604;28;19932;-61
2023/02/02 03:54:21;;;;;;;;;;;27.90;99.90;;;;;;5014618;28;20375;-60
2023/02/02 03:56:48;;;;;;;;;;;28.00;99.90;;;;;;5014227;28;19921;-60
2023/02/02 03:59:15;;;;;;;;;;;27.80;99.90;;;;;;5013042;28;19909;-61
2023/02/02 04:01:41;;;;;;;;;;;27.70;99.90;;;;;;5014117;28;19925;-60
2023/02/02 04:04:08;;;;;;;;;;;27.70;99.90;;;;;;5014323;28;20378;-60
2023/02/02 04:06:35;;;;;;;;;;;27.70;99.90;;;;;;5014338;28;19909;-62
2023/02/02 04:09:01;;;;;;;;;;;27.60;99.90;;;;;;5013862;28;19913;-60
2023/02/02 04:11:28;;;;;;;;;;;27.50;99.90;;;;;;5013804;28;19913;-60
2023/02/02 04:13:54;;;;;;;;;;;27.50;99.90;;;;;;5014058;28;20320;-61
2023/02/02 04:16:21;;;;;;;;;;;27.40;99.90;;;;;;5013695;28;19925;-60
2023/02/02 04:18:48;;;;;;;;;;;27.20;99.90;;;;;;5013567;28;19992;-60
2023/02/02 04:21:14;;;;;;;;;;;27.00;99.90;;;;;;5013521;28;20351;-60
2023/02/02 04:23:41;;;;;;;;;;;26.90;99.90;;;;;;5013766;28;19917;-60
2023/02/02 04:26:08;;;;;;;;;;;27.00;99.90;;;;;;5013761;28;19961;-60
2023/02/02 04:28:34;;;;;;;;;;;27.00;99.90;;;;;;5013443;28;20469;-60
2023/02/02 04:31:01;;;;;;;;;;;27.00;99.90;;;;;;5013432;28;19918;-60
2023/02/02 04:33:28;;;;;;;;;;;27.00;99.90;;;;;;5013531;28;20452;-60
2023/02/02 04:35:55;;;;;;;;;;;27.00;99.90;;;;;;5028489;28;20019;-60
2023/02/02 04:38:21;;;;;;;;;;;27.00;99.90;;;;;;5013187;28;19925;-60
2023/02/02 04:40:48;;;;;;;;;;;27.10;99.90;;;;;;5013576;28;19924;-60
2023/02/02 04:43:15;;;;;;;;;;;27.00;99.90;;;;;;5013207;28;20467;-61
2023/02/02 04:45:41;;;;;;;;;;;27.00;99.90;;;;;;5013415;28;19920;-62
2023/02/02 04:48:08;;;;;;;;;;;27.00;99.90;;;;;;5013430;28;20018;-60
2023/02/02 04:50:35;;;;;;;;;;;27.00;99.90;;;;;;5012785;28;19971;-60
2023/02/02 04:53:02;;;;;;;;;;;27.10;99.90;;;;;;5013195;28;19917;-60
2023/02/02 04:55:29;;;;;;;;;;;27.00;99.90;;;;;;5012960;28;20256;-61
2023/02/02 04:57:56;;;;;;;;;;;27.00;99.90;;;;;;5013116;28;19914;-62
2023/02/02 05:00:22;;;;;;;;;;;27.00;99.90;;;;;;5012700;28;19916;-63
2023/02/02 05:02:49;;;;;;;;;;;27.00;99.90;;;;;;5012977;28;19919;-60
2023/02/02 05:05:19;;;;;;;;;;;27.10;99.90;;;;;;5012737;28;19910;-61
2023/02/02 05:07:46;;;;;;;;;;;27.20;99.90;;;;;;5013000;28;19909;-61
2023/02/02 05:10:12;;;;;;;;;;;27.30;99.90;;;;;;5012347;28;20280;-62
2023/02/02 05:12:39;;;;;;;;;;;27.30;99.90;;;;;;5012790;28;20369;-64
2023/02/02 05:15:06;;;;;;;;;;;27.30;99.90;;;;;;5012929;28;19914;-60
2023/02/02 05:17:32;;;;;;;;;;;27.20;99.90;;;;;;5012513;28;19921;-61
2023/02/02 05:19:59;;;;;;;;;;;27.10;99.90;;;;;;5012505;28;19920;-63
2023/02/02 05:22:26;;;;;;;;;;;27.20;99.90;;;;;;5012569;28;19956;-64
2023/02/02 05:24:52;;;;;;;;;;;27.20;99.90;;;;;;5012517;28;19917;-60
2023/02/02 05:27:19;;;;;;;;;;;27.20;99.90;;;;;;5012209;28;19913;-65
2023/02/02 05:29:46;;;;;;;;;;;27.10;99.90;;;;;;5012003;28;19909;-60
2023/02/02 05:32:13;;;;;;;;;;;27.10;99.90;;;;;;5012508;28;19983;-61
2023/02/02 05:34:40;;;;;;;;;;;27.10;99.90;;;;;;5012269;28;19932;-61
2023/02/02 05:37:06;;;;;;;;;;;27.20;99.90;;;;;;5012448;28;19984;-61
2023/02/02 05:39:33;;;;;;;;;;;27.20;99.90;;;;;;5011673;28;19913;-60
2023/02/02 05:42:00;;;;;;;;;;;27.20;99.90;;;;;;5012342;28;19913;-60
2023/02/02 05:44:26;;;;;;;;;;;27.20;99.90;;;;;;5012243;28;19953;-60
2023/02/02 05:46:53;;;;;;;;;;;27.20;99.90;;;;;;5012558;28;19914;-64
2023/02/02 05:49:19;;;;;;;;;;;27.10;99.90;;;;;;5011680;28;19917;-63
2023/02/02 05:51:49;;;;;;;;;;;27.10;99.90;;;;;;5010223;28;19913;-61
2023/02/02 05:54:19;;;;;;;;;;;27.10;99.90;;;;;;5010096;28;20088;-62
2023/02/02 05:56:46;;;;;;;;;;;27.10;99.90;;;;;;5010193;28;19968;-61
2023/02/02 05:59:13;;;;;;;;;;;27.00;99.90;;;;;;5009564;28;19916;-61
2023/02/02 06:01:40;;;;;;;;;;;27.10;99.90;;;;;;5010158;28;19968;-61
2023/02/02 06:04:06;;;;;;;;;;;27.00;99.90;;;;;;5009607;28;19976;-66
2023/02/02 06:06:34;;;;;;;;;;;26.90;99.90;;;;;;5010040;28;19953;-64
2023/02/02 06:09:01;;;;;;;;;;;26.90;99.90;;;;;;5009595;28;20063;-61
2023/02/02 06:11:28;;;;;;;;;;;27.00;99.90;;;;;;5009812;28;20372;-61
2023/02/02 06:13:55;;;;;;;;;;;27.00;99.90;;;;;;5010079;28;20441;-61
2023/02/02 06:16:21;;;;;;;;;;;27.00;99.90;;;;;;5009987;28;19921;-61
2023/02/02 06:18:48;;;;;;;;;;;27.00;99.90;;;;;;5009048;28;19913;-60
2023/02/02 06:21:15;;;;;;;;;;;27.00;99.90;;;;;;5010343;28;19909;-61
2023/02/02 06:23:44;;;;;;;;;;;27.00;99.90;;;;;;5016391;28;19960;-63
2023/02/02 06:26:14;;;;;;;;;;;27.00;99.90;;;;;;5016406;28;19909;-61
2023/02/02 06:28:42;;;;;;;;;;;26.90;99.90;;;;;;5016252;28;19924;-61
2023/02/02 06:31:09;;;;;;;;;;;27.00;99.90;;;;;;5016072;28;20257;-63
2023/02/02 06:33:36;;;;;;;;;;;26.90;99.90;;;;;;5016473;28;19909;-62
2023/02/02 06:36:04;;;;;;;;;;;26.90;99.90;;;;;;5016303;28;20015;-61
2023/02/02 06:38:31;;;;;;;;;;;26.80;99.90;;;;;;5015977;28;19945;-61
2023/02/02 06:41:01;;;;;;;;;;;26.90;99.90;;;;;;5016541;28;19917;-61
2023/02/02 06:43:28;;;;;;;;;;;26.80;99.90;;;;;;5016055;28;20696;-62
2023/02/02 06:45:58;;;;;;;;;;;26.70;99.90;;;;;;5016141;28;19960;-62
2023/02/02 06:48:25;;;;;;;;;;;26.70;99.90;;;;;;5015942;28;19913;-61
2023/02/02 06:50:52;;;;;;;;;;;26.60;99.90;;;;;;5016353;28;20614;-62
2023/02/02 06:53:23;;;;;;;;;;;26.50;99.90;;;;;;5016038;28;19913;-61
2023/02/02 06:55:53;;;;;;;;;;;26.50;99.90;;;;;;5016065;28;19917;-61
2023/02/02 06:58:20;;;;;;;;;;;26.60;99.90;;;;;;5015848;28;19917;-63
2023/02/02 07:00:47;;;;;;;;;;;26.60;99.90;;;;;;5016333;28;19922;-62
2023/02/02 07:03:14;;;;;;;;;;;26.70;99.90;;;;;;5016021;28;20324;-61
2023/02/02 07:05:41;;;;;;;;;;;26.70;99.90;;;;;;5016235;28;20032;-63
2023/02/02 07:08:11;;;;;;;;;;;26.60;99.90;;;;;;5015290;28;20224;-61
2023/02/02 07:10:37;;;;;;;;;;;26.50;99.90;;;;;;5015803;28;20004;-68
2023/02/02 07:13:05;;;;;;;;;;;26.50;99.90;;;;;;5016001;28;19914;-60
2023/02/02 07:15:32;;;;;;;;;;;26.50;99.90;;;;;;5015836;28;20008;-60
2023/02/02 07:18:00;;;;;;;;;;;26.50;99.90;;;;;;5015847;28;19913;-62
2023/02/02 07:20:26;;;;;;;;;;;26.50;99.90;;;;;;5015827;28;19917;-60
2023/02/02 07:22:53;;;;;;;;;;;26.60;99.90;;;;;;5015843;28;19917;-61
2023/02/02 07:25:20;;;;;;;;;;;26.50;99.90;;;;;;5015945;28;19952;-61
2023/02/02 07:27:49;;;;;;;;;;;26.50;99.90;;;;;;5016591;28;19925;-61
2023/02/02 07:30:16;;;;;;;;;;;26.60;99.90;;;;;;5015900;28;19972;-61
2023/02/02 07:32:46;;;;;;;;;;;26.50;99.90;;;;;;5015674;28;19914;-61
2023/02/02 07:35:13;;;;;;;;;;;26.50;99.90;;;;;;5011925;28;19940;-60
2023/02/02 07:37:40;;;;;;;;;;;26.50;99.90;;;;;;4995427;28;20333;-61
2023/02/02 07:40:07;;;;;;;;;;;26.50;99.90;;;;;;5012819;28;20020;-61
2023/02/02 07:42:34;;;;;;;;;;;26.50;99.90;;;;;;5013091;28;19941;-60
2023/02/02 07:45:00;;;;;;;;;;;26.50;99.90;;;;;;5013433;28;19916;-62
2023/02/02 07:47:27;;;;;;;;;;;26.40;99.90;;;;;;5012720;28;20402;-61
2023/02/02 07:49:54;;;;;;;;;;;26.50;99.90;;;;;;5012262;28;19935;-61
2023/02/02 07:52:20;;;;;;;;;;;26.40;99.90;;;;;;5013398;28;20280;-60
2023/02/02 07:54:47;;;;;;;;;;;26.30;99.90;;;;;;5012759;28;19968;-62
2023/02/02 07:57:16;;;;;;;;;;;26.40;99.90;;;;;;5012497;28;19918;-61
2023/02/02 07:59:43;;;;;;;;;;;26.30;99.90;;;;;;5012373;28;19964;-60
2023/02/02 08:02:10;;;;;;;;;;;26.40;99.90;;;;;;5012352;28;20368;-61
2023/02/02 08:04:36;;;;;;;;;;;26.40;99.90;;;;;;5012639;28;19914;-61
2023/02/02 08:07:03;;;;;;;;;;;26.40;99.90;;;;;;5027711;28;19910;-61
2023/02/02 08:09:31;;;;;;;;;;;26.30;99.90;;;;;;5011538;28;19913;-61
2023/02/02 08:12:00;;;;;;;;;;;26.30;99.90;;;;;;5014500;28;20352;-60
2023/02/02 08:14:28;;;;;;;;;;;26.30;99.90;;;;;;5014319;28;20316;-62
2023/02/02 08:16:55;;;;;;;;;;;26.30;99.90;;;;;;5014299;28;19921;-60
2023/02/02 08:19:21;;;;;;;;;;;26.30;99.90;;;;;;5013566;28;19920;-61
2023/02/02 08:21:48;;;;;;;;;;;26.20;99.90;;;;;;4993147;28;19913;-60
2023/02/02 08:24:17;;;;;;;;;;;26.20;99.90;;;;;;5010610;28;20531;-61
2023/02/02 08:26:44;;;;;;;;;;;26.20;99.90;;;;;;5005543;28;19914;-65
2023/02/02 08:29:15;;;;;;;;;;;26.20;99.90;;;;;;5005358;28;19923;-62
2023/02/02 08:31:43;;;;;;;;;;;26.20;99.90;;;;;;5005967;28;19913;-63
2023/02/02 08:34:10;;;;;;;;;;;26.10;99.90;;;;;;5005491;28;19914;-61
2023/02/02 08:36:39;;;;;;;;;;;26.10;99.90;;;;;;5005432;28;20522;-62
2023/02/02 08:39:07;;;;;;;;;;;26.10;99.90;;;;;;5005412;28;19913;-61
2023/02/02 08:41:35;;;;;;;;;;;26.00;99.90;;;;;;5005439;28;19913;-62
2023/02/02 08:44:04;;;;;;;;;;;26.00;99.90;;;;;;5005445;28;19948;-61
2023/02/02 08:46:31;;;;;;;;;;;26.00;99.90;;;;;;5005036;28;20483;-60
2023/02/02 08:48:58;;;;;;;;;;;26.00;99.90;;;;;;5004943;28;19948;-65
2023/02/02 08:51:25;;;;;;;;;;;26.00;99.90;;;;;;5004590;28;20007;-61
2023/02/02 08:53:51;;;;;;;;;;;26.00;99.90;;;;;;5004907;28;19918;-61
2023/02/02 08:56:21;;;;;;;;;;;25.90;99.90;;;;;;5005152;28;20046;-62
2023/02/02 08:58:51;;;;;;;;;;;25.80;99.90;;;;;;5004917;28;20068;-61
2023/02/02 09:01:19;;;;;;;;;;;25.90;99.90;;;;;;5004647;28;19957;-61
2023/02/02 09:03:46;;;;;;;;;;;25.80;99.90;;;;;;5004511;28;20368;-66
2023/02/02 09:06:15;;;;;;;;;;;25.80;99.90;;;;;;5004899;28;20331;-59
2023/02/02 09:08:42;;;;;;;;;;;25.80;99.90;;;;;;5004346;28;19917;-60
2023/02/02 09:11:10;;;;;;;;;;;25.70;99.90;;;;;;5004644;28;19914;-61
2023/02/02 09:13:41;;;;;;;;;;;25.70;99.90;;;;;;5005091;28;19949;-68
2023/02/02 09:16:09;;;;;;;;;;;25.70;99.90;;;;;;5004654;28;19956;-61
2023/02/02 09:18:36;;;;;;;;;;;25.60;99.90;;;;;;5004202;28;20495;-62
2023/02/02 09:21:05;;;;;;;;;;;25.60;99.90;;;;;;5004440;28;20016;-63
2023/02/02 09:23:33;;;;;;;;;;;25.50;99.90;;;;;;5004201;28;20644;-62
2023/02/02 09:26:14;;;;;;;;;;;25.50;99.90;;;;;;5004521;28;20648;-61
2023/02/02 09:28:48;;;;;;;;;;;25.50;99.90;;;;;;5004104;28;19932;-61
2023/02/02 09:31:15;;;;;;;;;;;25.50;99.90;;;;;;5004292;28;19913;-60
2023/02/02 09:33:42;;;;;;;;;;;25.30;99.90;;;;;;5004433;28;20391;-61
2023/02/02 09:36:09;;;;;;;;;;;25.30;99.90;;;;;;5004386;28;20360;-61
2023/02/02 09:38:36;;;;;;;;;;;25.30;99.90;;;;;;5003822;28;20056;-60
2023/02/02 09:41:14;;;;;;;;;;;25.30;99.90;;;;;;5004338;28;19984;-60
2023/02/02 09:44:16;;;;;;;;;;;25.20;99.90;;;;;;4986356;28;19914;-61
2023/02/02 09:47:00;;;;;;;;;;;25.20;99.90;;;;;;4962451;28;19914;-60
2023/02/02 09:49:33;;;;;;;;;;;25.10;99.90;;;;;;5001223;28;19999;-60
2023/02/02 09:52:02;;;;;;;;;;;25.20;99.90;;;;;;5004506;28;20000;-60
2023/02/02 09:54:40;;;;;;;;;;;25.10;99.90;;;;;;5003972;28;19928;-60
2023/02/02 09:57:13;;;;;;;;;;;25.10;99.90;;;;;;5003180;28;19921;-61
2023/02/02 09:59:41;;;;;;;;;;;25.10;99.90;;;;;;5003922;28;19968;-61
2023/02/02 10:02:20;;;;;;;;;;;25.10;99.90;;;;;;5015525;28;19973;-62
2023/02/02 10:04:49;;;;;;;;;;;25.10;99.90;;;;;;4984631;28;20048;-61
2023/02/02 10:07:20;;;;;;;;;;;25.10;99.90;;;;;;4984335;28;19914;-60
2023/02/02 10:09:57;;;;;;;;;;;25.10;99.90;;;;;;4983867;28;19914;-60
2023/02/02 10:12:30;;;;;;;;;;;25.10;99.90;;;;;;4984425;28;20576;-62
2023/02/02 10:15:01;;;;;;;;;;;25.00;99.90;;;;;;4984573;28;20400;-61
2023/02/02 10:17:34;;;;;;;;;;;25.10;99.90;;;;;;4984246;28;19922;-62
2023/02/02 10:20:06;;;;;;;;;;;25.00;99.90;;;;;;4984289;28;20385;-61
2023/02/02 10:22:33;;;;;;;;;;;25.00;99.90;;;;;;4983900;28;19917;-61
2023/02/02 10:25:00;;;;;;;;;;;25.00;99.90;;;;;;4984233;28;20380;-62
2023/02/02 10:27:39;;;;;;;;;;;25.00;99.90;;;;;;4984183;28;20004;-61
2023/02/02 10:30:18;;;;;;;;;;;25.00;99.90;;;;;;4984454;28;19913;-61
2023/02/02 10:33:05;;;;;;;;;;;25.00;99.90;;;;;;4984445;28;19963;-61
2023/02/02 10:35:36;;;;;;;;;;;25.00;99.90;;;;;;4983744;28;19929;-61
2023/02/02 10:38:08;;;;;;;;;;;25.00;99.90;;;;;;4983796;28;19981;-64
2023/02/02 10:40:55;;;;;;;;;;;25.00;99.90;;;;;;4984310;28;19960;-62
2023/02/02 10:43:46;;;;;;;;;;;25.00;99.90;;;;;;4987089;28;19954;-61
2023/02/02 10:46:28;;;;;;;;;;;25.00;99.90;;;;;;4989026;28;19917;-59
2023/02/02 10:49:08;;;;;;;;;;;25.00;99.90;;;;;;4992123;28;19920;-60
2023/02/02 10:51:34;;;;;;;;;;;24.90;99.90;;;;;;4992321;28;20289;-60
2023/02/02 10:54:04;;;;;;;;;;;24.90;99.90;;;;;;4992314;28;19910;-60
2023/02/02 10:56:36;;;;;;;;;;;24.80;99.90;;;;;;4992325;28;20369;-62
2023/02/02 10:59:24;;;;;;;;;;;24.90;99.90;;;;;;4992059;28;20349;-61
2023/02/02 11:01:50;;;;;;;;;;;24.90;99.90;;;;;;5004869;28;19921;-61
2023/02/02 11:07:03;;;;;;;;;;;24.90;99.90;;;;;;5003604;28;19963;-62
2023/02/02 11:09:32;;;;;;;;;;;24.80;99.90;;;;;;5005751;28;19975;-60
2023/02/02 11:12:13;;;;;;;;;;;24.80;99.90;;;;;;5007330;28;19913;-61
2023/02/02 11:14:56;;;;;;;;;;;24.80;99.90;;;;;;5006989;28;19913;-62
2023/02/02 11:17:23;;;;;;;;;;;24.80;99.90;;;;;;5006736;28;19973;-62
2023/02/02 11:19:50;;;;;;;;;;;24.80;99.90;;;;;;5006912;28;19921;-61
2023/02/02 11:22:28;;;;;;;;;;;24.80;99.90;;;;;;5006796;28;19914;-60
2023/02/02 11:24:55;;;;;;;;;;;24.80;99.90;;;;;;5006989;28;19913;-62
2023/02/02 11:27:23;;;;;;;;;;;24.80;99.90;;;;;;5006473;28;19938;-62
2023/02/02 11:29:54;;;;;;;;;;;24.80;99.90;;;;;;4988419;28;20024;-61
2023/02/02 11:32:32;;;;;;;;;;;24.80;99.90;;;;;;5006820;28;19919;-61
2023/02/02 11:35:08;;;;;;;;;;;24.70;99.90;;;;;;5006678;28;20394;-61
2023/02/02 11:37:35;;;;;;;;;;;24.70;99.90;;;;;;5006067;28;20742;-61
2023/02/02 11:40:17;;;;;;;;;;;24.70;99.90;;;;;;5006535;28;20014;-61
2023/02/02 11:42:45;;;;;;;;;;;24.70;99.90;;;;;;5006582;28;19917;-61
2023/02/02 11:45:16;;;;;;;;;;;24.80;99.90;;;;;;5006494;28;19925;-61
2023/02/02 11:47:43;;;;;;;;;;;24.70;99.90;;;;;;4990819;28;20654;-59
2023/02/02 11:50:17;;;;;;;;;;;24.70;99.90;;;;;;5014968;28;19910;-60
2023/02/02 11:52:45;;;;;;;;;;;24.70;99.90;;;;;;5014979;28;19909;-61
2023/02/02 11:55:15;;;;;;;;;;;24.70;99.90;;;;;;5014966;28;19918;-62
2023/02/02 11:58:02;;;;;;;;;;;24.70;99.90;;;;;;5013511;28;20380;-60
2023/02/02 12:00:28;;;;;;;;;;;24.70;99.90;;;;;;5014420;28;19913;-60
2023/02/02 12:02:57;;;;;;;;;;;24.70;99.90;;;;;;5014745;28;20272;-61
2023/02/02 12:05:26;;;;;;;;;;;24.60;99.90;;;;;;5014573;28;19909;-60
2023/02/02 12:07:53;;;;;;;;;;;24.60;99.90;;;;;;5014180;28;19914;-61
2023/02/02 12:10:20;;;;;;;;;;;24.60;99.90;;;;;;5014666;28;20376;-61
2023/02/02 12:12:54;;;;;;;;;;;24.60;99.90;;;;;;5017109;28;19913;-62
2023/02/02 12:15:22;;;;;;;;;;;24.60;99.90;;;;;;5014547;28;20381;-61
2023/02/02 12:17:51;;;;;;;;;;;24.60;99.90;;;;;;5014266;28;19990;-60
2023/02/02 12:20:27;;;;;;;;;;;24.60;99.90;;;;;;5014014;28;20054;-61
2023/02/02 12:22:53;;;;;;;;;;;24.60;99.90;;;;;;5014399;28;20360;-62
2023/02/02 12:25:38;;;;;;;;;;;24.60;99.90;;;;;;5014233;28;19956;-60
2023/02/02 12:28:17;;;;;;;;;;;24.50;99.90;;;;;;5014067;28;20283;-63
2023/02/02 12:31:16;;;;;;;;;;;24.50;99.90;;;;;;5014105;28;20300;-60
2023/02/02 12:33:45;;;;;;;;;;;24.50;99.90;;;;;;4991420;28;20417;-61
2023/02/02 12:36:38;;;;;;;;;;;24.50;99.90;;;;;;5014067;28;19924;-61
2023/02/02 12:39:05;;;;;;;;;;;24.50;99.90;;;;;;4997722;28;19910;-61
2023/02/02 12:41:46;;;;;;;;;;;24.60;99.90;;;;;;5014059;28;20051;-62
2023/02/02 12:44:13;;;;;;;;;;;24.50;99.90;;;;;;5014043;28;19993;-61
2023/02/02 12:46:49;;;;;;;;;;;24.60;99.90;;;;;;5014338;28;19956;-61
2023/02/02 12:49:22;;;;;;;;;;;24.60;99.90;;;;;;5013449;28;19916;-59
2023/02/02 12:52:03;;;;;;;;;;;24.60;99.90;;;;;;5013793;28;19997;-64
2023/02/02 12:54:29;;;;;;;;;;;24.60;99.90;;;;;;5013809;28;19956;-61
2023/02/02 12:57:02;;;;;;;;;;;24.60;99.90;;;;;;5013603;28;20427;-61
2023/02/02 12:59:44;;;;;;;;;;;24.50;99.90;;;;;;5013073;28;19924;-64
2023/02/02 13:02:29;;;;;;;;;;;24.50;99.90;;;;;;5013436;28;19976;-59
2023/02/02 13:05:02;;;;;;;;;;;24.50;99.90;;;;;;5013663;28;19909;-62
2023/02/02 13:07:28;;;;;;;;;;;24.50;99.90;;;;;;5012710;28;19920;-62
2023/02/02 13:10:07;;;;;;;;;;;24.50;99.90;;;;;;5013447;28;19910;-61
2023/02/02 13:12:36;;;;;;;;;;;24.50;99.90;;;;;;5013498;28;19920;-61
2023/02/02 13:15:12;;;;;;;;;;;24.50;99.90;;;;;;5013371;28;20271;-60
2023/02/02 13:17:41;;;;;;;;;;;24.50;99.90;;;;;;5012921;28;19928;-61
2023/02/02 13:20:28;;;;;;;;;;;24.40;99.90;;;;;;5013065;28;20036;-63
2023/02/02 13:22:56;;;;;;;;;;;24.50;99.90;;;;;;4992069;28;19909;-61
2023/02/02 13:25:35;;;;;;;;;;;24.50;99.90;;;;;;5012840;28;19909;-61
2023/02/02 13:28:05;;;;;;;;;;;24.40;99.90;;;;;;5012698;28;19913;-63
2023/02/02 13:30:35;;;;;;;;;;;24.50;99.90;;;;;;5012871;28;19914;-62
2023/02/02 13:33:03;;;;;;;;;;;24.40;99.90;;;;;;5012046;28;19917;-63
2023/02/02 13:35:36;;;;;;;;;;;24.40;99.90;;;;;;5012794;28;19921;-61
2023/02/02 13:38:15;;;;;;;;;;;24.50;99.90;;;;;;5012204;28;19917;-62
2023/02/02 13:40:43;;;;;;;;;;;24.50;99.90;;;;;;5012781;28;20360;-62
2023/02/02 13:43:26;;;;;;;;;;;24.50;99.90;;;;;;5012764;28;19914;-61
2023/02/02 13:45:59;;;;;;;;;;;24.40;99.90;;;;;;5012722;28;20427;-61
2023/02/02 13:48:32;;;;;;;;;;;24.30;99.90;;;;;;5012428;28;20380;-61
2023/02/02 13:51:11;;;;;;;;;;;24.30;99.90;;;;;;5012822;28;19909;-61
2023/02/02 13:54:00;;;;;;;;;;;24.30;99.90;;;;;;5012537;28;19910;-61
2023/02/02 13:56:38;;;;;;;;;;;24.30;99.90;;;;;;5013035;28;19921;-67
2023/02/02 13:59:24;;;;;;;;;;;24.30;99.90;;;;;;5012198;28;19920;-61
2023/02/02 14:01:51;;;;;;;;;;;24.30;99.90;;;;;;5012205;28;19925;-63
2023/02/02 14:04:22;;;;;;;;;;;24.40;99.90;;;;;;5012330;28;19910;-61
2023/02/02 14:06:55;;;;;;;;;;;24.30;99.90;;;;;;5012335;28;19909;-63
2023/02/02 14:09:24;;;;;;;;;;;24.40;99.90;;;;;;5011622;28;19921;-61
2023/02/02 14:12:17;;;;;;;;;;;24.30;99.90;;;;;;5012319;28;19964;-60
2023/02/02 14:14:45;;;;;;;;;;;24.30;99.90;;;;;;5010284;28;20311;-64
2023/02/02 14:17:16;;;;;;;;;;;24.20;99.90;;;;;;5012274;28;19925;-62
2023/02/02 14:19:48;;;;;;;;;;;24.30;99.90;;;;;;5012320;28;19914;-63
2023/02/02 14:22:20;;;;;;;;;;;24.30;99.90;;;;;;5012212;28;19920;-65
2023/02/02 14:24:48;;;;;;;;;;;24.30;99.90;;;;;;5012022;28;20012;-61
2023/02/02 14:27:14;;;;;;;;;;;24.30;99.90;;;;;;5011552;28;19920;-65
2023/02/02 14:29:44;;;;;;;;;;;24.40;99.90;;;;;;5012115;28;20361;-60
2023/02/02 14:32:29;;;;;;;;;;;24.40;99.90;;;;;;5012157;28;20392;-64
2023/02/02 14:35:01;;;;;;;;;;;24.40;99.90;;;;;;5012206;28;20269;-61
2023/02/02 14:37:34;;;;;;;;;;;24.50;99.90;;;;;;5011421;28;20342;-61
2023/02/02 14:40:09;;;;;;;;;;;24.50;99.90;;;;;;5012197;28;19965;-63
2023/02/02 14:45:39;;;;;;;;;;;24.60;99.90;;;;;;5016170;28;19967;-61
2023/02/02 14:48:06;;;;;;;;;;;24.70;99.90;;;;;;5015531;28;19996;-61